Time;durP1;ratioP1;P1;durP2;ratioP2;P2;SDS_P1;SDS_P2;PMS_P1;PMS_P2;Temp;Humidity;BMP_temperature;BMP_pressure;BME280_temperature;BME280_humidity;BME280_pressure;Samples;Min_cycle;Max_cycle;Signal;HPM_P1;HPM_P2
2021/09/21 00:02:27;;;;;;;4.40;2.10;;;17.30;70.30;;;;;;20891312;28;20112;-81
2021/09/21 00:12:32;;;;;;;2.25;1.65;;;17.30;70.30;;;;;;20891534;28;20125;-81
2021/09/21 00:22:32;;;;;;;4.35;1.88;;;17.30;70.30;;;;;;20891088;28;20177;-82
2021/09/21 00:32:34;;;;;;;2.80;1.80;;;17.30;70.30;;;;;;20890053;28;20175;-82
2021/09/21 00:42:36;;;;;;;4.10;1.73;;;17.30;70.30;;;;;;20885611;28;20048;-81
2021/09/21 00:52:38;;;;;;;4.03;1.83;;;17.20;70.30;;;;;;20905992;28;20045;-81
2021/09/21 01:02:39;;;;;;;2.40;1.70;;;17.30;70.30;;;;;;20888165;28;20121;-82
2021/09/21 01:12:40;;;;;;;2.30;1.50;;;17.30;70.20;;;;;;20918928;28;20191;-82
2021/09/21 01:22:40;;;;;;;2.45;1.88;;;17.20;70.20;;;;;;20904148;28;20482;-81
2021/09/21 01:32:44;;;;;;;2.63;1.80;;;17.20;70.20;;;;;;20885997;28;20041;-81
2021/09/21 01:42:47;;;;;;;2.85;1.88;;;17.20;70.20;;;;;;20902131;28;20294;-81
2021/09/21 02:03:08;;;;;;;1.65;1.30;;;17.20;70.20;;;;;;20903062;28;20463;-81
2021/09/21 02:13:08;;;;;;;3.40;2.05;;;17.20;70.20;;;;;;20882463;28;20131;-81
2021/09/21 02:23:09;;;;;;;3.50;1.85;;;17.20;70.20;;;;;;20915817;28;20111;-81
2021/09/21 02:33:13;;;;;;;4.13;2.03;;;17.20;70.20;;;;;;20898132;28;20065;-81
2021/09/21 02:43:13;;;;;;;4.43;1.85;;;17.20;70.20;;;;;;20898558;28;20067;-81
2021/09/21 02:53:17;;;;;;;2.60;1.60;;;17.20;70.10;;;;;;20879379;28;20045;-81
2021/09/21 03:03:21;;;;;;;3.57;1.87;;;17.20;70.10;;;;;;20894696;28;20045;-81
2021/09/21 03:13:29;;;;;;;1.90;1.30;;;17.20;70.10;;;;;;20894274;28;20491;-81
2021/09/21 03:23:31;;;;;;;2.70;1.50;;;17.20;70.20;;;;;;20896622;28;20045;-82
2021/09/21 03:33:39;;;;;;;2.35;1.63;;;17.10;70.10;;;;;;20881596;28;20070;-85
2021/09/21 03:43:41;;;;;;;2.50;1.63;;;17.10;70.10;;;;;;20878447;28;20466;-82
2021/09/21 03:53:42;;;;;;;2.80;1.90;;;17.10;70.10;;;;;;20874849;28;20398;-79
2021/09/21 04:03:42;;;;;;;2.67;1.70;;;17.20;70.20;;;;;;20893001;28;20047;-81
2021/09/21 04:13:43;;;;;;;3.22;1.88;;;17.10;70.10;;;;;;20875432;28;20025;-83
2021/09/21 04:23:43;;;;;;;4.32;1.80;;;17.10;70.10;;;;;;20904716;28;20052;-75
2021/09/21 04:33:44;;;;;;;2.55;1.67;;;17.10;70.10;;;;;;20904084;28;20064;-75
2021/09/21 04:43:44;;;;;;;2.75;1.42;;;17.10;70.10;;;;;;20903267;28;20025;-74
2021/09/21 04:53:45;;;;;;;2.15;1.60;;;17.00;70.00;;;;;;20886290;28;20037;-75
2021/09/21 05:03:46;;;;;;;4.90;2.28;;;17.10;70.00;;;;;;20884850;28;20115;-82
2021/09/21 05:13:46;;;;;;;2.80;1.95;;;17.10;70.00;;;;;;20885976;28;20029;-79
2021/09/21 05:23:47;;;;;;;2.22;1.45;;;17.10;70.00;;;;;;20872006;28;20037;-73
2021/09/21 05:33:47;;;;;;;2.80;1.80;;;17.10;69.90;;;;;;20918007;28;20159;-82
2021/09/21 05:43:48;;;;;;;2.97;1.80;;;17.00;69.80;;;;;;20885099;28;20044;-79
2021/09/21 05:53:48;;;;;;;2.65;1.98;;;17.00;69.70;;;;;;20901395;28;20037;-79
2021/09/21 06:03:49;;;;;;;3.13;2.03;;;17.00;69.50;;;;;;20901543;28;20072;-85
2021/09/21 06:13:50;;;;;;;2.28;1.60;;;17.00;69.40;;;;;;20924149;28;20112;-80
2021/09/21 06:23:51;;;;;;;2.78;1.88;;;17.00;69.30;;;;;;20915356;28;20036;-80
2021/09/21 06:33:52;;;;;;;4.30;1.83;;;17.00;69.20;;;;;;20899267;28;20033;-80
2021/09/21 06:43:53;;;;;;;3.08;1.80;;;17.00;69.10;;;;;;20896714;28;20051;-81
2021/09/21 06:53:54;;;;;;;2.45;1.80;;;17.00;69.10;;;;;;20866199;28;20043;-79
2021/09/21 07:03:55;;;;;;;2.50;1.77;;;17.00;69.10;;;;;;20896533;28;20148;-80
2021/09/21 07:13:58;;;;;;;3.50;2.03;;;17.00;69.10;;;;;;20822454;28;20057;-79
2021/09/21 07:24:00;;;;;;;2.80;1.63;;;17.00;69.10;;;;;;20798578;28;20045;-79
2021/09/21 07:34:03;;;;;;;3.40;1.60;;;17.00;69.00;;;;;;20811966;28;20387;-79
2021/09/21 07:44:04;;;;;;;3.13;1.85;;;17.00;69.10;;;;;;20811453;28;20037;-79
2021/09/21 07:54:07;;;;;;;3.17;2.03;;;16.90;68.90;;;;;;20826553;28;20053;-79
2021/09/21 08:04:07;;;;;;;3.13;1.90;;;17.00;68.90;;;;;;20810377;28;20064;-79
2021/09/21 08:14:08;;;;;;;3.05;1.77;;;17.00;69.00;;;;;;20810110;28;20029;-79
2021/09/21 08:24:10;;;;;;;5.25;2.05;;;17.00;69.00;;;;;;20808764;28;20492;-79
2021/09/21 08:34:11;;;;;;;2.00;1.50;;;17.00;69.00;;;;;;20808040;28;20119;-79
2021/09/21 08:44:12;;;;;;;3.25;1.73;;;17.00;69.10;;;;;;20823198;28;20064;-80
2021/09/21 08:54:12;;;;;;;2.88;1.60;;;17.00;69.00;;;;;;20855953;28;20024;-81
2021/09/21 09:04:14;;;;;;;2.57;1.57;;;17.00;69.00;;;;;;20885993;28;20487;-81
2021/09/21 09:14:19;;;;;;;2.53;1.58;;;17.00;69.00;;;;;;20902950;28;20290;-80
2021/09/21 09:24:20;;;;;;;3.45;2.05;;;17.00;69.00;;;;;;20885595;28;20037;-81
2021/09/21 09:34:25;;;;;;;2.90;1.63;;;16.90;68.90;;;;;;20887365;28;20048;-83
2021/09/21 09:44:28;;;;;;;2.78;1.83;;;16.90;68.90;;;;;;20901671;28;20044;-82
2021/09/21 09:54:28;;;;;;;3.88;1.90;;;17.00;68.90;;;;;;20885993;28;20044;-84
2021/09/21 10:04:31;;;;;;;3.67;2.05;;;16.90;68.90;;;;;;20909102;28;20041;-84
2021/09/21 10:14:31;;;;;;;2.67;1.58;;;17.00;69.50;;;;;;20886150;28;20037;-80
2021/09/21 10:24:42;;;;;;;3.42;1.48;;;17.00;68.80;;;;;;21176650;22;20492;-76
2021/09/21 10:34:47;;;;;;;2.78;1.88;;;17.00;68.70;;;;;;20638579;28;20026;-75
2021/09/21 10:45:08;;;;;;;3.13;1.92;;;17.00;68.70;;;;;;20638695;28;20069;-79
2021/09/21 10:55:12;;;;;;;2.45;1.52;;;17.00;68.50;;;;;;20658454;28;20103;-75
2021/09/21 11:05:18;;;;;;;2.83;1.65;;;17.00;68.30;;;;;;20657214;28;20064;-75
2021/09/21 11:15:23;;;;;;;3.50;2.03;;;17.00;68.10;;;;;;20695917;28;20037;-79
2021/09/21 11:25:28;;;;;;;4.47;1.50;;;17.00;68.10;;;;;;20665064;28;20042;-74
2021/09/21 11:35:30;;;;;;;2.38;1.38;;;17.00;68.80;;;;;;20722532;28;20042;-74
2021/09/21 11:45:49;;;;;;;2.30;1.30;;;16.90;68.20;;;;;;20709047;28;20081;-74
2021/09/21 11:56:18;;;;;;;4.32;1.42;;;17.00;68.30;;;;;;20743027;28;20038;-74
2021/09/21 12:06:38;;;;;;;2.37;1.27;;;17.00;68.50;;;;;;20712485;28;20133;-76
2021/09/21 12:16:39;;;;;;;2.58;1.70;;;17.00;68.60;;;;;;20711312;28;20060;-75
2021/09/21 12:26:40;;;;;;;2.50;1.40;;;16.90;68.50;;;;;;20695116;28;20121;-77
2021/09/21 12:36:43;;;;;;;2.38;1.20;;;17.10;68.70;;;;;;20752145;28;20383;-79
2021/09/21 12:46:47;;;;;;;2.38;1.60;;;17.00;68.50;;;;;;20712120;28;20399;-81
2021/09/21 12:56:57;;;;;;;2.20;1.40;;;17.00;68.40;;;;;;20743642;28;20472;-79
2021/09/21 13:06:59;;;;;;;2.22;1.70;;;17.00;68.30;;;;;;20711116;28;20046;-75
2021/09/21 13:17:00;;;;;;;3.80;1.60;;;17.00;68.10;;;;;;20720714;28;20388;-74
2021/09/21 13:27:10;;;;;;;3.13;1.65;;;17.00;67.70;;;;;;20704167;28;20753;-79
2021/09/21 13:37:25;;;;;;;2.92;1.50;;;17.00;67.50;;;;;;20753607;28;20068;-80
2021/09/21 13:47:28;;;;;;;2.05;1.23;;;17.00;67.30;;;;;;20751646;28;20054;-79
2021/09/21 13:57:29;;;;;;;2.58;1.50;;;17.00;67.20;;;;;;20738178;28;20038;-80
2021/09/21 14:07:30;;;;;;;2.47;1.40;;;17.00;67.00;;;;;;20715049;28;20042;-85
2021/09/21 14:17:32;;;;;;;3.88;1.30;;;17.00;67.00;;;;;;20659358;28;20031;-85
2021/09/21 14:27:35;;;;;;;1.67;1.02;;;17.00;66.80;;;;;;20721289;28;20042;-84
2021/09/21 14:37:36;;;;;;;3.53;1.80;;;17.00;66.90;;;;;;20722500;28;20044;-85
2021/09/21 14:47:40;;;;;;;2.45;1.50;;;17.00;66.90;;;;;;20751505;28;20034;-81
2021/09/21 14:57:41;;;;;;;3.42;1.60;;;17.10;66.90;;;;;;20671137;28;20381;-82
2021/09/21 15:07:46;;;;;;;4.72;1.60;;;17.10;66.90;;;;;;20639025;28;20058;-77
2021/09/21 15:17:46;;;;;;;1.67;1.08;;;17.10;66.90;;;;;;20728964;28;20033;-80
2021/09/21 15:27:47;;;;;;;2.58;1.23;;;17.10;66.90;;;;;;20685513;28;20053;-77
2021/09/21 15:37:49;;;;;;;4.95;1.67;;;17.10;66.90;;;;;;20691938;28;20147;-76
2021/09/21 15:47:49;;;;;;;5.93;1.60;;;17.10;67.00;;;;;;20683696;28;20468;-76
2021/09/21 15:57:50;;;;;;;2.83;1.45;;;17.10;67.30;;;;;;20645672;28;20096;-77
2021/09/21 16:07:55;;;;;;;4.68;1.45;;;17.00;68.10;;;;;;20659529;28;20109;-76
2021/09/21 16:17:56;;;;;;;3.30;1.20;;;17.10;67.60;;;;;;20628704;28;20046;-76
2021/09/21 16:28:02;;;;;;;4.23;1.57;;;17.10;67.70;;;;;;20642533;28;20192;-76
2021/09/21 16:38:09;;;;;;;3.25;1.63;;;17.10;67.80;;;;;;20680412;28;20277;-80
2021/09/21 16:48:10;;;;;;;2.22;1.25;;;17.00;67.80;;;;;;20703943;28;20128;-75
2021/09/21 16:58:34;;;;;;;2.10;1.20;;;17.10;67.90;;;;;;20722750;28;20129;-76
2021/09/21 17:08:37;;;;;;;2.08;1.30;;;17.10;68.00;;;;;;20739806;28;20116;-80
2021/09/21 17:18:38;;;;;;;3.38;1.42;;;17.00;68.10;;;;;;20694398;28;20038;-77
2021/09/21 17:28:38;;;;;;;2.08;1.55;;;17.00;68.10;;;;;;20660068;28;20036;-77
2021/09/21 17:38:42;;;;;;;2.30;1.30;;;17.00;68.20;;;;;;20658069;28;20041;-79
2021/09/21 17:48:45;;;;;;;3.08;1.63;;;17.00;68.20;;;;;;20668515;28;20034;-80
2021/09/21 17:58:47;;;;;;;2.47;1.30;;;17.10;68.30;;;;;;20671584;28;20042;-79
2021/09/21 18:08:47;;;;;;;2.35;1.35;;;17.00;68.30;;;;;;20636507;28;20074;-79
2021/09/21 18:19:27;;;;;;;2.67;1.53;;;17.00;68.40;;;;;;20666989;28;20045;-79
2021/09/21 18:29:28;;;;;;;3.08;1.20;;;17.00;68.40;;;;;;20695947;28;20034;-79
2021/09/21 18:39:28;;;;;;;3.90;1.77;;;17.00;68.50;;;;;;20673474;28;20540;-77
2021/09/21 18:49:29;;;;;;;3.30;1.40;;;17.00;68.60;;;;;;20728238;28;20296;-77
2021/09/21 18:59:30;;;;;;;3.53;1.70;;;17.00;68.60;;;;;;20810127;28;20124;-77
2021/09/21 19:09:31;;;;;;;2.30;1.10;;;17.00;68.60;;;;;;20777257;28;20045;-79
2021/09/21 19:19:32;;;;;;;1.80;1.20;;;17.00;68.60;;;;;;20809054;28;20611;-81
2021/09/21 19:29:33;;;;;;;1.95;1.33;;;17.00;68.60;;;;;;20768022;28;20042;-79
2021/09/21 19:39:37;;;;;;;3.03;1.25;;;17.00;68.70;;;;;;20743583;28;20061;-79
2021/09/21 19:49:38;;;;;;;2.08;1.20;;;17.00;68.60;;;;;;20710520;28;20040;-78
2021/09/21 19:59:41;;;;;;;1.85;1.23;;;17.00;68.60;;;;;;20726572;28;20492;-78
2021/09/21 20:09:42;;;;;;;2.53;1.35;;;17.00;68.60;;;;;;20727322;28;20034;-78
2021/09/21 20:19:44;;;;;;;1.95;1.55;;;17.00;68.60;;;;;;20743636;28;20046;-78
2021/09/21 20:29:46;;;;;;;2.08;1.63;;;17.00;68.50;;;;;;20725427;28;20041;-78
2021/09/21 20:39:48;;;;;;;3.97;1.42;;;17.00;68.50;;;;;;20725357;28;20072;-78
2021/09/21 20:49:49;;;;;;;3.63;1.35;;;17.00;68.50;;;;;;20741392;28;20041;-78
2021/09/21 20:59:51;;;;;;;3.55;1.50;;;17.00;68.60;;;;;;20736215;28;20037;-78
2021/09/21 21:09:53;;;;;;;3.25;1.58;;;17.00;68.60;;;;;;20723312;28;20400;-78
2021/09/21 21:19:54;;;;;;;2.72;1.25;;;17.00;68.70;;;;;;20739379;28;20060;-79
2021/09/21 21:29:54;;;;;;;2.42;1.38;;;16.90;68.70;;;;;;20738240;28;20065;-77
2021/09/21 21:39:58;;;;;;;3.58;1.50;;;17.00;68.80;;;;;;20737748;28;20037;-78
2021/09/21 21:49:59;;;;;;;3.42;1.55;;;17.00;68.90;;;;;;20753670;28;20040;-78
2021/09/21 21:59:59;;;;;;;2.78;1.75;;;17.00;69.00;;;;;;20720884;28;20030;-79
2021/09/21 22:10:00;;;;;;;2.55;1.50;;;17.00;69.00;;;;;;20734683;28;20033;-79
2021/09/21 22:20:04;;;;;;;2.85;1.70;;;17.00;69.10;;;;;;20718282;28;20046;-79
2021/09/21 22:30:09;;;;;;;3.22;1.40;;;17.00;69.20;;;;;;20750230;28;20040;-79
2021/09/21 22:40:11;;;;;;;2.53;1.33;;;17.00;69.30;;;;;;20749127;28;20034;-79
2021/09/21 22:50:13;;;;;;;2.88;1.52;;;17.00;69.30;;;;;;20748659;28;20168;-78
2021/09/21 23:00:16;;;;;;;2.72;1.42;;;17.00;69.40;;;;;;20731996;28;20037;-78
2021/09/21 23:10:22;;;;;;;2.92;1.38;;;17.00;69.50;;;;;;20730904;28;20042;-79
2021/09/21 23:20:22;;;;;;;3.90;1.80;;;17.00;69.60;;;;;;20729333;28;20092;-78
2021/09/21 23:30:25;;;;;;;2.83;1.50;;;17.00;69.60;;;;;;20730344;28;20050;-79
2021/09/21 23:40:25;;;;;;;3.10;1.80;;;17.00;69.70;;;;;;20744973;28;20073;-80
2021/09/21 23:50:26;;;;;;;1.63;1.23;;;17.00;69.70;;;;;;20743888;28;20034;-79
